sensor_id;sensor_type;location;lat;lon;timestamp;P1;durP1;ratioP1;P2;durP2;ratioP2
54171;SDS011;40076;52.354;4.970;2023-12-22T00:01:16;15.50;;;2.10;;
54171;SDS011;40076;52.354;4.970;2023-12-22T00:03:42;15.93;;;2.55;;
54171;SDS011;40076;52.354;4.970;2023-12-22T00:06:10;14.95;;;1.88;;
54171;SDS011;40076;52.354;4.970;2023-12-22T00:08:36;15.32;;;2.65;;
54171;SDS011;40076;52.354;4.970;2023-12-22T00:11:02;16.55;;;2.10;;
54171;SDS011;40076;52.354;4.970;2023-12-22T00:13:29;12.85;;;2.28;;
54171;SDS011;40076;52.354;4.970;2023-12-22T00:15:55;12.13;;;2.13;;
54171;SDS011;40076;52.354;4.970;2023-12-22T00:18:20;13.35;;;2.00;;
54171;SDS011;40076;52.354;4.970;2023-12-22T00:20:46;12.05;;;2.10;;
54171;SDS011;40076;52.354;4.970;2023-12-22T00:23:14;10.77;;;2.08;;
54171;SDS011;40076;52.354;4.970;2023-12-22T00:25:40;15.50;;;2.13;;
54171;SDS011;40076;52.354;4.970;2023-12-22T00:28:05;13.52;;;1.90;;
54171;SDS011;40076;52.354;4.970;2023-12-22T00:30:33;11.40;;;2.40;;
54171;SDS011;40076;52.354;4.970;2023-12-22T00:32:59;16.15;;;1.85;;
54171;SDS011;40076;52.354;4.970;2023-12-22T00:35:24;11.82;;;1.83;;
54171;SDS011;40076;52.354;4.970;2023-12-22T00:37:49;13.82;;;2.10;;
54171;SDS011;40076;52.354;4.970;2023-12-22T00:40:15;16.90;;;1.70;;
54171;SDS011;40076;52.354;4.970;2023-12-22T00:42:40;20.95;;;2.25;;
54171;SDS011;40076;52.354;4.970;2023-12-22T00:45:06;10.10;;;2.30;;
54171;SDS011;40076;52.354;4.970;2023-12-22T00:47:31;9.65;;;1.60;;
54171;SDS011;40076;52.354;4.970;2023-12-22T00:49:59;8.60;;;1.42;;
54171;SDS011;40076;52.354;4.970;2023-12-22T00:52:25;12.50;;;2.05;;
54171;SDS011;40076;52.354;4.970;2023-12-22T00:54:51;9.75;;;1.48;;
54171;SDS011;40076;52.354;4.970;2023-12-22T00:57:16;15.43;;;1.70;;
54171;SDS011;40076;52.354;4.970;2023-12-22T00:59:42;9.82;;;1.90;;
54171;SDS011;40076;52.354;4.970;2023-12-22T01:02:12;18.38;;;2.28;;
54171;SDS011;40076;52.354;4.970;2023-12-22T01:04:38;14.18;;;2.03;;
54171;SDS011;40076;52.354;4.970;2023-12-22T01:07:03;15.55;;;2.03;;
54171;SDS011;40076;52.354;4.970;2023-12-22T01:09:29;14.40;;;2.30;;
54171;SDS011;40076;52.354;4.970;2023-12-22T01:11:54;29.30;;;2.83;;
54171;SDS011;40076;52.354;4.970;2023-12-22T01:14:19;17.98;;;2.38;;
54171;SDS011;40076;52.354;4.970;2023-12-22T01:16:45;11.75;;;2.47;;
54171;SDS011;40076;52.354;4.970;2023-12-22T01:19:10;14.38;;;2.08;;
54171;SDS011;40076;52.354;4.970;2023-12-22T01:21:36;15.45;;;2.17;;
54171;SDS011;40076;52.354;4.970;2023-12-22T01:24:01;14.82;;;2.80;;
54171;SDS011;40076;52.354;4.970;2023-12-22T01:26:27;28.70;;;4.05;;
54171;SDS011;40076;52.354;4.970;2023-12-22T01:28:52;18.27;;;2.30;;
54171;SDS011;40076;52.354;4.970;2023-12-22T01:31:18;16.00;;;2.47;;
54171;SDS011;40076;52.354;4.970;2023-12-22T01:33:44;16.67;;;2.83;;
54171;SDS011;40076;52.354;4.970;2023-12-22T01:36:09;21.10;;;2.65;;
54171;SDS011;40076;52.354;4.970;2023-12-22T01:38:35;24.23;;;3.40;;
54171;SDS011;40076;52.354;4.970;2023-12-22T01:41:00;25.42;;;3.47;;
54171;SDS011;40076;52.354;4.970;2023-12-22T01:43:26;20.80;;;3.28;;
54171;SDS011;40076;52.354;4.970;2023-12-22T01:45:52;24.13;;;4.32;;
54171;SDS011;40076;52.354;4.970;2023-12-22T01:48:22;24.40;;;4.05;;
54171;SDS011;40076;52.354;4.970;2023-12-22T01:50:49;28.77;;;3.22;;
54171;SDS011;40076;52.354;4.970;2023-12-22T01:53:19;22.38;;;3.67;;
54171;SDS011;40076;52.354;4.970;2023-12-22T01:55:46;19.30;;;3.90;;
54171;SDS011;40076;52.354;4.970;2023-12-22T01:58:13;19.70;;;4.30;;
54171;SDS011;40076;52.354;4.970;2023-12-22T02:00:38;21.33;;;3.97;;
54171;SDS011;40076;52.354;4.970;2023-12-22T02:03:04;28.10;;;5.07;;
54171;SDS011;40076;52.354;4.970;2023-12-22T02:05:29;29.42;;;4.88;;
54171;SDS011;40076;52.354;4.970;2023-12-22T02:07:55;31.00;;;3.85;;
54171;SDS011;40076;52.354;4.970;2023-12-22T02:10:20;22.60;;;3.42;;
54171;SDS011;40076;52.354;4.970;2023-12-22T02:12:46;22.83;;;4.72;;
54171;SDS011;40076;52.354;4.970;2023-12-22T02:15:11;27.35;;;4.53;;
54171;SDS011;40076;52.354;4.970;2023-12-22T02:17:52;16.00;;;3.17;;
54171;SDS011;40076;52.354;4.970;2023-12-22T02:20:23;18.63;;;3.45;;
54171;SDS011;40076;52.354;4.970;2023-12-22T02:22:52;21.52;;;4.05;;
54171;SDS011;40076;52.354;4.970;2023-12-22T02:25:18;25.60;;;4.03;;
54171;SDS011;40076;52.354;4.970;2023-12-22T02:32:50;22.27;;;4.13;;
54171;SDS011;40076;52.354;4.970;2023-12-22T02:35:23;24.50;;;3.72;;
54171;SDS011;40076;52.354;4.970;2023-12-22T02:37:50;28.17;;;3.35;;
54171;SDS011;40076;52.354;4.970;2023-12-22T02:40:16;27.50;;;4.13;;
54171;SDS011;40076;52.354;4.970;2023-12-22T02:42:42;31.17;;;4.70;;
54171;SDS011;40076;52.354;4.970;2023-12-22T02:45:16;25.05;;;3.42;;
54171;SDS011;40076;52.354;4.970;2023-12-22T02:47:43;24.80;;;3.58;;
54171;SDS011;40076;52.354;4.970;2023-12-22T02:50:08;22.50;;;4.30;;
54171;SDS011;40076;52.354;4.970;2023-12-22T02:52:34;21.50;;;3.33;;
54171;SDS011;40076;52.354;4.970;2023-12-22T02:55:00;22.00;;;3.35;;
54171;SDS011;40076;52.354;4.970;2023-12-22T02:57:26;25.88;;;4.22;;
54171;SDS011;40076;52.354;4.970;2023-12-22T02:59:52;30.50;;;4.30;;
54171;SDS011;40076;52.354;4.970;2023-12-22T03:02:18;20.38;;;3.53;;
54171;SDS011;40076;52.354;4.970;2023-12-22T03:04:43;23.77;;;3.45;;
54171;SDS011;40076;52.354;4.970;2023-12-22T03:07:11;24.23;;;3.97;;
54171;SDS011;40076;52.354;4.970;2023-12-22T03:09:36;22.50;;;4.22;;
54171;SDS011;40076;52.354;4.970;2023-12-22T03:12:02;18.00;;;3.35;;
54171;SDS011;40076;52.354;4.970;2023-12-22T03:14:28;20.23;;;3.42;;
54171;SDS011;40076;52.354;4.970;2023-12-22T03:17:00;26.08;;;4.07;;
54171;SDS011;40076;52.354;4.970;2023-12-22T03:19:27;23.73;;;3.42;;
54171;SDS011;40076;52.354;4.970;2023-12-22T03:21:52;27.73;;;3.47;;
54171;SDS011;40076;52.354;4.970;2023-12-22T03:24:18;13.10;;;3.28;;
54171;SDS011;40076;52.354;4.970;2023-12-22T03:26:44;14.63;;;2.67;;
54171;SDS011;40076;52.354;4.970;2023-12-22T03:29:10;13.02;;;1.83;;
54171;SDS011;40076;52.354;4.970;2023-12-22T03:31:35;12.93;;;1.98;;
54171;SDS011;40076;52.354;4.970;2023-12-22T03:34:01;10.20;;;1.90;;
54171;SDS011;40076;52.354;4.970;2023-12-22T03:36:26;9.38;;;1.58;;
54171;SDS011;40076;52.354;4.970;2023-12-22T03:38:52;10.45;;;1.50;;
54171;SDS011;40076;52.354;4.970;2023-12-22T03:41:17;13.40;;;1.90;;
54171;SDS011;40076;52.354;4.970;2023-12-22T03:43:42;11.20;;;1.63;;
54171;SDS011;40076;52.354;4.970;2023-12-22T03:46:08;17.40;;;2.10;;
54171;SDS011;40076;52.354;4.970;2023-12-22T03:48:33;13.35;;;2.28;;
54171;SDS011;40076;52.354;4.970;2023-12-22T03:50:59;16.00;;;2.22;;
54171;SDS011;40076;52.354;4.970;2023-12-22T03:53:24;13.02;;;2.28;;
54171;SDS011;40076;52.354;4.970;2023-12-22T03:55:49;15.65;;;3.40;;
54171;SDS011;40076;52.354;4.970;2023-12-22T03:58:15;20.80;;;3.22;;
54171;SDS011;40076;52.354;4.970;2023-12-22T04:00:40;25.88;;;3.60;;
54171;SDS011;40076;52.354;4.970;2023-12-22T04:03:05;19.05;;;2.70;;
54171;SDS011;40076;52.354;4.970;2023-12-22T04:05:31;20.33;;;3.00;;
54171;SDS011;40076;52.354;4.970;2023-12-22T04:07:56;18.48;;;3.28;;
54171;SDS011;40076;52.354;4.970;2023-12-22T04:10:21;22.70;;;3.60;;
54171;SDS011;40076;52.354;4.970;2023-12-22T04:12:47;28.70;;;3.85;;
54171;SDS011;40076;52.354;4.970;2023-12-22T04:15:12;28.90;;;4.05;;
54171;SDS011;40076;52.354;4.970;2023-12-22T04:17:38;27.30;;;4.40;;
54171;SDS011;40076;52.354;4.970;2023-12-22T04:20:04;27.00;;;3.53;;
54171;SDS011;40076;52.354;4.970;2023-12-22T04:22:30;32.42;;;5.00;;
54171;SDS011;40076;52.354;4.970;2023-12-22T04:24:56;25.58;;;4.72;;
54171;SDS011;40076;52.354;4.970;2023-12-22T04:27:21;21.15;;;3.63;;
54171;SDS011;40076;52.354;4.970;2023-12-22T04:29:46;23.02;;;3.47;;
54171;SDS011;40076;52.354;4.970;2023-12-22T04:32:12;26.15;;;3.35;;
54171;SDS011;40076;52.354;4.970;2023-12-22T04:34:37;30.52;;;3.65;;
54171;SDS011;40076;52.354;4.970;2023-12-22T04:37:02;20.92;;;3.33;;
54171;SDS011;40076;52.354;4.970;2023-12-22T04:39:28;19.55;;;3.50;;
54171;SDS011;40076;52.354;4.970;2023-12-22T04:41:53;27.58;;;3.42;;
54171;SDS011;40076;52.354;4.970;2023-12-22T04:44:18;22.63;;;3.70;;
54171;SDS011;40076;52.354;4.970;2023-12-22T04:46:44;32.83;;;4.60;;
54171;SDS011;40076;52.354;4.970;2023-12-22T04:49:09;23.15;;;3.78;;
54171;SDS011;40076;52.354;4.970;2023-12-22T04:51:34;29.60;;;4.43;;
54171;SDS011;40076;52.354;4.970;2023-12-22T04:53:59;25.15;;;4.28;;
54171;SDS011;40076;52.354;4.970;2023-12-22T04:56:25;23.33;;;4.07;;
54171;SDS011;40076;52.354;4.970;2023-12-22T04:58:51;27.98;;;3.67;;
54171;SDS011;40076;52.354;4.970;2023-12-22T05:01:16;24.92;;;3.75;;
54171;SDS011;40076;52.354;4.970;2023-12-22T05:03:42;19.83;;;3.75;;
54171;SDS011;40076;52.354;4.970;2023-12-22T05:06:08;16.63;;;3.50;;
54171;SDS011;40076;52.354;4.970;2023-12-22T05:08:33;16.00;;;2.65;;
54171;SDS011;40076;52.354;4.970;2023-12-22T05:10:59;19.75;;;3.92;;
54171;SDS011;40076;52.354;4.970;2023-12-22T05:13:24;18.58;;;2.42;;
54171;SDS011;40076;52.354;4.970;2023-12-22T05:15:50;13.93;;;2.40;;
54171;SDS011;40076;52.354;4.970;2023-12-22T05:18:15;14.95;;;3.75;;
54171;SDS011;40076;52.354;4.970;2023-12-22T05:20:40;23.67;;;2.60;;
54171;SDS011;40076;52.354;4.970;2023-12-22T05:23:06;26.50;;;3.05;;
54171;SDS011;40076;52.354;4.970;2023-12-22T05:25:31;17.10;;;2.88;;
54171;SDS011;40076;52.354;4.970;2023-12-22T05:27:56;18.38;;;3.10;;
54171;SDS011;40076;52.354;4.970;2023-12-22T05:30:22;17.92;;;3.30;;
54171;SDS011;40076;52.354;4.970;2023-12-22T05:32:47;18.40;;;2.85;;
54171;SDS011;40076;52.354;4.970;2023-12-22T05:35:12;15.18;;;3.03;;
54171;SDS011;40076;52.354;4.970;2023-12-22T05:37:38;18.30;;;3.10;;
54171;SDS011;40076;52.354;4.970;2023-12-22T05:40:03;16.17;;;2.58;;
54171;SDS011;40076;52.354;4.970;2023-12-22T05:42:31;22.58;;;2.90;;
54171;SDS011;40076;52.354;4.970;2023-12-22T05:44:56;13.52;;;3.13;;
54171;SDS011;40076;52.354;4.970;2023-12-22T05:47:23;25.90;;;3.97;;
54171;SDS011;40076;52.354;4.970;2023-12-22T05:49:48;16.35;;;3.08;;
54171;SDS011;40076;52.354;4.970;2023-12-22T05:52:13;20.00;;;3.00;;
54171;SDS011;40076;52.354;4.970;2023-12-22T05:54:39;19.58;;;3.35;;
54171;SDS011;40076;52.354;4.970;2023-12-22T05:57:04;22.80;;;3.78;;
54171;SDS011;40076;52.354;4.970;2023-12-22T05:59:31;17.88;;;2.90;;
54171;SDS011;40076;52.354;4.970;2023-12-22T06:01:57;20.70;;;3.85;;
54171;SDS011;40076;52.354;4.970;2023-12-22T06:04:26;28.20;;;4.53;;
54171;SDS011;40076;52.354;4.970;2023-12-22T06:06:51;28.33;;;4.65;;
54171;SDS011;40076;52.354;4.970;2023-12-22T06:09:17;18.98;;;2.75;;
54171;SDS011;40076;52.354;4.970;2023-12-22T06:11:43;16.90;;;3.55;;
54171;SDS011;40076;52.354;4.970;2023-12-22T06:14:09;16.48;;;3.22;;
54171;SDS011;40076;52.354;4.970;2023-12-22T06:16:35;22.10;;;3.35;;
54171;SDS011;40076;52.354;4.970;2023-12-22T06:19:03;27.05;;;3.28;;
54171;SDS011;40076;52.354;4.970;2023-12-22T06:21:28;21.50;;;4.05;;
54171;SDS011;40076;52.354;4.970;2023-12-22T06:23:53;24.70;;;3.05;;
54171;SDS011;40076;52.354;4.970;2023-12-22T06:26:19;25.08;;;4.57;;
54171;SDS011;40076;52.354;4.970;2023-12-22T06:28:44;25.08;;;5.90;;
54171;SDS011;40076;52.354;4.970;2023-12-22T06:31:16;23.15;;;3.97;;
54171;SDS011;40076;52.354;4.970;2023-12-22T06:33:43;25.02;;;3.78;;
54171;SDS011;40076;52.354;4.970;2023-12-22T06:36:17;26.80;;;5.38;;
54171;SDS011;40076;52.354;4.970;2023-12-22T06:38:43;20.23;;;3.63;;
54171;SDS011;40076;52.354;4.970;2023-12-22T06:41:17;21.58;;;4.20;;
54171;SDS011;40076;52.354;4.970;2023-12-22T06:43:46;26.25;;;4.55;;
54171;SDS011;40076;52.354;4.970;2023-12-22T06:46:15;31.92;;;5.85;;
54171;SDS011;40076;52.354;4.970;2023-12-22T06:48:41;24.80;;;5.63;;
54171;SDS011;40076;52.354;4.970;2023-12-22T06:51:07;29.75;;;5.13;;
54171;SDS011;40076;52.354;4.970;2023-12-22T06:53:32;23.60;;;4.13;;
54171;SDS011;40076;52.354;4.970;2023-12-22T06:55:57;30.10;;;4.35;;
54171;SDS011;40076;52.354;4.970;2023-12-22T06:58:23;23.13;;;4.47;;
54171;SDS011;40076;52.354;4.970;2023-12-22T07:00:50;31.48;;;4.65;;
54171;SDS011;40076;52.354;4.970;2023-12-22T07:03:16;28.85;;;4.20;;
54171;SDS011;40076;52.354;4.970;2023-12-22T07:05:42;31.52;;;5.10;;
54171;SDS011;40076;52.354;4.970;2023-12-22T07:08:07;35.90;;;4.57;;
54171;SDS011;40076;52.354;4.970;2023-12-22T07:10:33;28.30;;;4.70;;
54171;SDS011;40076;52.354;4.970;2023-12-22T07:12:58;30.67;;;4.82;;
54171;SDS011;40076;52.354;4.970;2023-12-22T07:15:24;27.67;;;4.80;;
54171;SDS011;40076;52.354;4.970;2023-12-22T07:17:49;29.08;;;5.00;;
54171;SDS011;40076;52.354;4.970;2023-12-22T07:20:14;31.58;;;4.95;;
54171;SDS011;40076;52.354;4.970;2023-12-22T07:22:40;23.88;;;4.25;;
54171;SDS011;40076;52.354;4.970;2023-12-22T07:25:05;31.52;;;5.05;;
54171;SDS011;40076;52.354;4.970;2023-12-22T07:27:33;33.13;;;5.93;;
54171;SDS011;40076;52.354;4.970;2023-12-22T07:30:00;29.52;;;4.88;;
54171;SDS011;40076;52.354;4.970;2023-12-22T07:32:26;28.85;;;4.40;;
54171;SDS011;40076;52.354;4.970;2023-12-22T07:34:51;18.58;;;3.10;;
54171;SDS011;40076;52.354;4.970;2023-12-22T07:37:16;17.40;;;3.45;;
54171;SDS011;40076;52.354;4.970;2023-12-22T07:39:42;30.45;;;3.88;;
54171;SDS011;40076;52.354;4.970;2023-12-22T07:42:10;32.95;;;4.65;;
54171;SDS011;40076;52.354;4.970;2023-12-22T07:44:35;30.63;;;5.35;;
54171;SDS011;40076;52.354;4.970;2023-12-22T07:47:00;33.03;;;4.88;;
54171;SDS011;40076;52.354;4.970;2023-12-22T07:49:26;32.05;;;5.10;;
54171;SDS011;40076;52.354;4.970;2023-12-22T07:51:52;35.63;;;6.55;;
54171;SDS011;40076;52.354;4.970;2023-12-22T07:54:19;34.85;;;5.30;;
54171;SDS011;40076;52.354;4.970;2023-12-22T07:56:45;36.28;;;6.40;;
54171;SDS011;40076;52.354;4.970;2023-12-22T07:59:10;32.00;;;6.15;;
54171;SDS011;40076;52.354;4.970;2023-12-22T08:01:35;26.42;;;4.57;;
54171;SDS011;40076;52.354;4.970;2023-12-22T08:04:01;29.83;;;4.32;;
54171;SDS011;40076;52.354;4.970;2023-12-22T08:06:26;27.33;;;5.28;;
54171;SDS011;40076;52.354;4.970;2023-12-22T08:08:51;28.35;;;3.90;;
54171;SDS011;40076;52.354;4.970;2023-12-22T08:11:19;24.73;;;5.43;;
54171;SDS011;40076;52.354;4.970;2023-12-22T08:13:45;17.85;;;3.00;;
54171;SDS011;40076;52.354;4.970;2023-12-22T08:16:10;20.25;;;4.05;;
54171;SDS011;40076;52.354;4.970;2023-12-22T08:18:36;24.65;;;3.03;;
54171;SDS011;40076;52.354;4.970;2023-12-22T08:21:01;20.98;;;3.50;;
54171;SDS011;40076;52.354;4.970;2023-12-22T08:23:27;22.95;;;4.25;;
54171;SDS011;40076;52.354;4.970;2023-12-22T08:25:52;29.08;;;3.80;;
54171;SDS011;40076;52.354;4.970;2023-12-22T08:28:17;30.05;;;4.78;;
54171;SDS011;40076;52.354;4.970;2023-12-22T08:30:43;25.30;;;4.28;;
54171;SDS011;40076;52.354;4.970;2023-12-22T08:33:09;30.05;;;4.50;;
54171;SDS011;40076;52.354;4.970;2023-12-22T08:35:34;32.95;;;5.57;;
54171;SDS011;40076;52.354;4.970;2023-12-22T08:38:00;36.10;;;4.13;;
54171;SDS011;40076;52.354;4.970;2023-12-22T08:40:25;30.15;;;4.97;;
54171;SDS011;40076;52.354;4.970;2023-12-22T08:42:51;27.42;;;5.00;;
54171;SDS011;40076;52.354;4.970;2023-12-22T08:45:27;30.35;;;4.75;;
54171;SDS011;40076;52.354;4.970;2023-12-22T08:47:54;26.27;;;3.95;;
54171;SDS011;40076;52.354;4.970;2023-12-22T08:50:23;31.77;;;5.32;;
54171;SDS011;40076;52.354;4.970;2023-12-22T08:52:50;19.10;;;3.92;;
54171;SDS011;40076;52.354;4.970;2023-12-22T08:55:18;24.55;;;3.50;;
54171;SDS011;40076;52.354;4.970;2023-12-22T08:57:44;27.98;;;3.30;;
54171;SDS011;40076;52.354;4.970;2023-12-22T09:00:10;20.13;;;3.13;;
54171;SDS011;40076;52.354;4.970;2023-12-22T09:02:36;18.27;;;3.40;;
54171;SDS011;40076;52.354;4.970;2023-12-22T09:05:02;21.30;;;3.45;;
54171;SDS011;40076;52.354;4.970;2023-12-22T09:07:28;13.80;;;2.15;;
54171;SDS011;40076;52.354;4.970;2023-12-22T09:09:53;7.75;;;1.75;;
54171;SDS011;40076;52.354;4.970;2023-12-22T09:13:07;8.70;;;1.42;;
54171;SDS011;40076;52.354;4.970;2023-12-22T09:15:51;7.65;;;0.95;;
54171;SDS011;40076;52.354;4.970;2023-12-22T09:18:16;12.43;;;2.17;;
54171;SDS011;40076;52.354;4.970;2023-12-22T09:20:42;7.05;;;1.63;;
54171;SDS011;40076;52.354;4.970;2023-12-22T09:23:07;10.35;;;1.13;;
54171;SDS011;40076;52.354;4.970;2023-12-22T09:25:34;12.50;;;1.95;;
54171;SDS011;40076;52.354;4.970;2023-12-22T09:28:07;18.60;;;2.33;;
54171;SDS011;40076;52.354;4.970;2023-12-22T09:30:33;19.67;;;2.80;;
54171;SDS011;40076;52.354;4.970;2023-12-22T09:32:59;22.25;;;3.30;;
54171;SDS011;40076;52.354;4.970;2023-12-22T09:35:24;24.60;;;3.08;;
54171;SDS011;40076;52.354;4.970;2023-12-22T09:37:51;19.15;;;2.72;;
54171;SDS011;40076;52.354;4.970;2023-12-22T09:40:17;17.88;;;2.60;;
54171;SDS011;40076;52.354;4.970;2023-12-22T09:42:44;14.57;;;2.65;;
54171;SDS011;40076;52.354;4.970;2023-12-22T09:45:11;23.33;;;3.35;;
54171;SDS011;40076;52.354;4.970;2023-12-22T09:47:41;11.77;;;2.40;;
54171;SDS011;40076;52.354;4.970;2023-12-22T09:50:11;11.93;;;2.03;;
54171;SDS011;40076;52.354;4.970;2023-12-22T09:52:40;21.42;;;2.50;;
54171;SDS011;40076;52.354;4.970;2023-12-22T09:55:08;14.75;;;3.20;;
54171;SDS011;40076;52.354;4.970;2023-12-22T09:57:35;14.13;;;2.05;;
54171;SDS011;40076;52.354;4.970;2023-12-22T10:00:02;11.50;;;2.92;;
54171;SDS011;40076;52.354;4.970;2023-12-22T10:02:31;21.10;;;2.75;;
54171;SDS011;40076;52.354;4.970;2023-12-22T10:04:58;13.18;;;2.60;;
54171;SDS011;40076;52.354;4.970;2023-12-22T10:07:24;17.17;;;3.05;;
54171;SDS011;40076;52.354;4.970;2023-12-22T10:09:51;20.30;;;2.08;;
54171;SDS011;40076;52.354;4.970;2023-12-22T10:12:18;15.90;;;3.15;;
54171;SDS011;40076;52.354;4.970;2023-12-22T10:14:47;16.63;;;2.53;;
54171;SDS011;40076;52.354;4.970;2023-12-22T10:17:13;16.45;;;2.53;;
54171;SDS011;40076;52.354;4.970;2023-12-22T10:19:42;18.52;;;2.90;;
54171;SDS011;40076;52.354;4.970;2023-12-22T10:22:10;20.42;;;3.58;;
54171;SDS011;40076;52.354;4.970;2023-12-22T10:24:45;15.30;;;3.10;;
54171;SDS011;40076;52.354;4.970;2023-12-22T10:27:15;15.50;;;2.25;;
54171;SDS011;40076;52.354;4.970;2023-12-22T10:29:47;16.23;;;2.30;;
54171;SDS011;40076;52.354;4.970;2023-12-22T10:32:13;19.58;;;4.03;;
54171;SDS011;40076;52.354;4.970;2023-12-22T10:34:39;18.40;;;2.83;;
54171;SDS011;40076;52.354;4.970;2023-12-22T10:37:04;21.15;;;2.65;;
54171;SDS011;40076;52.354;4.970;2023-12-22T10:39:30;15.05;;;3.10;;
54171;SDS011;40076;52.354;4.970;2023-12-22T10:41:56;19.27;;;2.88;;
54171;SDS011;40076;52.354;4.970;2023-12-22T10:44:25;13.95;;;1.98;;
54171;SDS011;40076;52.354;4.970;2023-12-22T10:46:51;13.13;;;2.13;;
54171;SDS011;40076;52.354;4.970;2023-12-22T10:49:20;16.88;;;2.65;;
54171;SDS011;40076;52.354;4.970;2023-12-22T10:51:52;16.33;;;1.88;;
54171;SDS011;40076;52.354;4.970;2023-12-22T10:54:18;13.25;;;2.25;;
54171;SDS011;40076;52.354;4.970;2023-12-22T10:56:44;13.20;;;2.20;;
54171;SDS011;40076;52.354;4.970;2023-12-22T10:59:09;20.92;;;2.70;;
54171;SDS011;40076;52.354;4.970;2023-12-22T11:01:36;10.32;;;2.00;;
54171;SDS011;40076;52.354;4.970;2023-12-22T11:04:05;18.20;;;3.00;;
54171;SDS011;40076;52.354;4.970;2023-12-22T11:06:39;12.50;;;2.05;;
54171;SDS011;40076;52.354;4.970;2023-12-22T11:09:08;14.73;;;2.47;;
54171;SDS011;40076;52.354;4.970;2023-12-22T11:11:34;14.88;;;2.15;;
54171;SDS011;40076;52.354;4.970;2023-12-22T11:14:01;14.63;;;1.67;;
54171;SDS011;40076;52.354;4.970;2023-12-22T11:16:28;10.55;;;2.30;;
54171;SDS011;40076;52.354;4.970;2023-12-22T11:18:54;14.70;;;2.15;;
54171;SDS011;40076;52.354;4.970;2023-12-22T11:21:23;10.90;;;2.58;;
54171;SDS011;40076;52.354;4.970;2023-12-22T11:23:50;16.70;;;2.13;;
54171;SDS011;40076;52.354;4.970;2023-12-22T11:26:19;15.18;;;2.60;;
54171;SDS011;40076;52.354;4.970;2023-12-22T11:28:46;15.05;;;2.53;;
54171;SDS011;40076;52.354;4.970;2023-12-22T11:31:12;10.07;;;2.40;;
54171;SDS011;40076;52.354;4.970;2023-12-22T11:33:44;19.70;;;2.80;;
54171;SDS011;40076;52.354;4.970;2023-12-22T11:36:11;16.25;;;3.25;;
54171;SDS011;40076;52.354;4.970;2023-12-22T11:38:39;14.43;;;2.80;;
54171;SDS011;40076;52.354;4.970;2023-12-22T11:41:09;18.42;;;3.20;;
54171;SDS011;40076;52.354;4.970;2023-12-22T11:43:38;10.52;;;1.60;;
54171;SDS011;40076;52.354;4.970;2023-12-22T11:46:09;18.02;;;2.58;;
54171;SDS011;40076;52.354;4.970;2023-12-22T11:48:34;17.27;;;2.40;;
54171;SDS011;40076;52.354;4.970;2023-12-22T11:51:00;14.18;;;2.85;;
54171;SDS011;40076;52.354;4.970;2023-12-22T11:53:30;19.02;;;3.17;;
54171;SDS011;40076;52.354;4.970;2023-12-22T11:58:39;12.23;;;2.60;;
54171;SDS011;40076;52.354;4.970;2023-12-22T12:01:07;19.77;;;2.50;;
54171;SDS011;40076;52.354;4.970;2023-12-22T12:03:48;13.98;;;1.67;;
54171;SDS011;40076;52.354;4.970;2023-12-22T12:06:18;15.32;;;2.22;;
54171;SDS011;40076;52.354;4.970;2023-12-22T12:08:50;12.85;;;1.92;;
54171;SDS011;40076;52.354;4.970;2023-12-22T12:11:16;15.00;;;2.05;;
54171;SDS011;40076;52.354;4.970;2023-12-22T12:13:47;13.43;;;1.65;;
54171;SDS011;40076;52.354;4.970;2023-12-22T12:16:15;18.83;;;2.00;;
54171;SDS011;40076;52.354;4.970;2023-12-22T12:18:49;16.65;;;2.15;;
54171;SDS011;40076;52.354;4.970;2023-12-22T12:21:17;16.08;;;2.40;;
54171;SDS011;40076;52.354;4.970;2023-12-22T12:23:46;16.85;;;2.50;;
54171;SDS011;40076;52.354;4.970;2023-12-22T12:26:13;15.13;;;2.20;;
54171;SDS011;40076;52.354;4.970;2023-12-22T12:28:41;17.52;;;2.90;;
54171;SDS011;40076;52.354;4.970;2023-12-22T12:31:11;17.42;;;2.60;;
54171;SDS011;40076;52.354;4.970;2023-12-22T12:33:38;16.05;;;2.28;;
54171;SDS011;40076;52.354;4.970;2023-12-22T12:36:05;19.05;;;2.45;;
54171;SDS011;40076;52.354;4.970;2023-12-22T12:41:42;16.30;;;2.40;;
54171;SDS011;40076;52.354;4.970;2023-12-22T12:44:14;14.48;;;2.25;;
54171;SDS011;40076;52.354;4.970;2023-12-22T12:46:41;21.75;;;3.60;;
54171;SDS011;40076;52.354;4.970;2023-12-22T12:49:14;18.60;;;2.40;;
54171;SDS011;40076;52.354;4.970;2023-12-22T12:51:43;15.57;;;2.47;;
54171;SDS011;40076;52.354;4.970;2023-12-22T12:54:12;14.90;;;2.40;;
54171;SDS011;40076;52.354;4.970;2023-12-22T12:56:47;22.25;;;4.13;;
54171;SDS011;40076;52.354;4.970;2023-12-22T12:59:14;15.30;;;3.13;;
54171;SDS011;40076;52.354;4.970;2023-12-22T13:01:41;20.08;;;2.63;;
54171;SDS011;40076;52.354;4.970;2023-12-22T13:04:07;16.92;;;2.60;;
54171;SDS011;40076;52.354;4.970;2023-12-22T13:06:42;15.15;;;1.75;;
54171;SDS011;40076;52.354;4.970;2023-12-22T13:09:17;14.95;;;2.83;;
54171;SDS011;40076;52.354;4.970;2023-12-22T13:11:47;16.55;;;2.58;;
54171;SDS011;40076;52.354;4.970;2023-12-22T13:14:31;13.32;;;2.00;;
54171;SDS011;40076;52.354;4.970;2023-12-22T13:16:59;17.27;;;1.95;;
54171;SDS011;40076;52.354;4.970;2023-12-22T13:19:25;20.13;;;2.70;;
54171;SDS011;40076;52.354;4.970;2023-12-22T13:21:52;16.05;;;3.05;;
54171;SDS011;40076;52.354;4.970;2023-12-22T13:24:21;18.38;;;2.72;;
54171;SDS011;40076;52.354;4.970;2023-12-22T13:26:47;15.15;;;2.45;;
54171;SDS011;40076;52.354;4.970;2023-12-22T13:29:44;9.98;;;1.98;;
54171;SDS011;40076;52.354;4.970;2023-12-22T13:32:22;12.80;;;2.40;;
54171;SDS011;40076;52.354;4.970;2023-12-22T13:34:58;13.93;;;2.35;;
54171;SDS011;40076;52.354;4.970;2023-12-22T13:37:26;15.50;;;2.28;;
54171;SDS011;40076;52.354;4.970;2023-12-22T13:39:55;21.33;;;2.88;;
54171;SDS011;40076;52.354;4.970;2023-12-22T13:42:27;18.40;;;3.03;;
54171;SDS011;40076;52.354;4.970;2023-12-22T13:44:52;13.10;;;2.97;;
54171;SDS011;40076;52.354;4.970;2023-12-22T13:47:19;16.08;;;3.13;;
54171;SDS011;40076;52.354;4.970;2023-12-22T13:49:55;17.63;;;3.05;;
54171;SDS011;40076;52.354;4.970;2023-12-22T13:52:28;14.05;;;3.65;;
54171;SDS011;40076;52.354;4.970;2023-12-22T13:54:59;18.83;;;2.40;;
54171;SDS011;40076;52.354;4.970;2023-12-22T13:57:27;16.67;;;3.28;;
54171;SDS011;40076;52.354;4.970;2023-12-22T13:59:52;21.45;;;5.13;;
54171;SDS011;40076;52.354;4.970;2023-12-22T14:02:21;16.95;;;3.00;;
54171;SDS011;40076;52.354;4.970;2023-12-22T14:04:50;16.23;;;2.70;;
54171;SDS011;40076;52.354;4.970;2023-12-22T14:07:38;19.95;;;2.28;;
54171;SDS011;40076;52.354;4.970;2023-12-22T14:10:06;15.00;;;2.67;;
54171;SDS011;40076;52.354;4.970;2023-12-22T14:12:36;13.93;;;2.28;;
54171;SDS011;40076;52.354;4.970;2023-12-22T14:15:03;14.60;;;2.60;;
54171;SDS011;40076;52.354;4.970;2023-12-22T14:17:38;15.63;;;2.78;;
54171;SDS011;40076;52.354;4.970;2023-12-22T14:20:07;22.45;;;2.97;;
54171;SDS011;40076;52.354;4.970;2023-12-22T14:22:35;21.63;;;2.80;;
54171;SDS011;40076;52.354;4.970;2023-12-22T14:25:02;20.27;;;2.80;;
54171;SDS011;40076;52.354;4.970;2023-12-22T14:27:28;18.60;;;3.35;;
54171;SDS011;40076;52.354;4.970;2023-12-22T14:29:54;22.75;;;3.30;;
54171;SDS011;40076;52.354;4.970;2023-12-22T14:32:19;18.95;;;3.45;;
54171;SDS011;40076;52.354;4.970;2023-12-22T14:34:45;23.17;;;3.72;;
54171;SDS011;40076;52.354;4.970;2023-12-22T14:37:11;17.27;;;3.33;;
54171;SDS011;40076;52.354;4.970;2023-12-22T14:39:36;18.40;;;3.28;;
54171;SDS011;40076;52.354;4.970;2023-12-22T14:42:01;22.67;;;3.05;;
54171;SDS011;40076;52.354;4.970;2023-12-22T14:44:30;20.60;;;3.40;;
54171;SDS011;40076;52.354;4.970;2023-12-22T14:46:56;24.02;;;4.10;;